Time;durP1;ratioP1;P1;durP2;ratioP2;P2;SDS_P1;SDS_P2;PMS_P1;PMS_P2;Temp;Humidity;BMP_temperature;BMP_pressure;BME280_temperature;BME280_humidity;BME280_pressure;Samples;Min_cycle;Max_cycle;Signal;HPM_P1;HPM_P2
2021/10/26 00:01:30;;;;;;;13.45;11.85;;;;;;;;;;4938225;29;20426;-83
2021/10/26 00:03:57;;;;;;;15.27;11.38;;;;;;;;;;4927372;29;20428;-82
2021/10/26 00:06:24;;;;;;;17.08;11.15;;;;;;;;;;4925382;29;20422;-82
2021/10/26 00:08:51;;;;;;;13.35;11.35;;;;;;;;;;4924656;29;20410;-83
2021/10/26 00:11:19;;;;;;;16.50;11.93;;;;;;;;;;4926454;29;20476;-83
2021/10/26 00:13:46;;;;;;;12.80;10.93;;;;;;;;;;4925039;29;21381;-83
2021/10/26 00:16:12;;;;;;;15.17;11.97;;;;;;;;;;4927424;29;21007;-83
2021/10/26 00:18:39;;;;;;;14.35;11.75;;;;;;;;;;4927063;29;20418;-82
2021/10/26 00:21:06;;;;;;;13.35;11.77;;;;;;;;;;4927010;29;20426;-82
2021/10/26 00:23:33;;;;;;;14.32;11.30;;;;;;;;;;4927521;29;21148;-82
2021/10/26 00:26:00;;;;;;;13.33;11.20;;;;;;;;;;4926517;29;20835;-83
2021/10/26 00:28:28;;;;;;;14.57;11.35;;;;;;;;;;4927180;29;20406;-83
2021/10/26 00:30:55;;;;;;;15.10;11.03;;;;;;;;;;4926777;29;20918;-82
2021/10/26 00:33:23;;;;;;;13.23;10.70;;;;;;;;;;4929566;29;20814;-82
2021/10/26 00:35:50;;;;;;;14.15;10.95;;;;;;;;;;4929746;29;20500;-83
2021/10/26 00:38:17;;;;;;;14.73;11.20;;;;;;;;;;4930537;29;20502;-82
2021/10/26 00:40:44;;;;;;;13.13;10.60;;;;;;;;;;4930052;29;20418;-82
2021/10/26 00:43:11;;;;;;;12.70;10.60;;;;;;;;;;4931854;29;20436;-83
2021/10/26 00:45:40;;;;;;;13.30;10.35;;;;;;;;;;4931387;29;20742;-82
2021/10/26 00:48:07;;;;;;;13.27;10.90;;;;;;;;;;4930931;29;20414;-82
2021/10/26 00:50:34;;;;;;;12.73;10.37;;;;;;;;;;4930794;29;20418;-83
2021/10/26 00:53:01;;;;;;;11.77;9.77;;;;;;;;;;4927466;29;20424;-83
2021/10/26 00:55:28;;;;;;;13.03;10.37;;;;;;;;;;4926720;29;20795;-82
2021/10/26 00:57:55;;;;;;;13.30;10.15;;;;;;;;;;4940460;23;20457;-83
2021/10/26 01:00:23;;;;;;;11.13;9.90;;;;;;;;;;4926185;29;20429;-83
2021/10/26 01:02:51;;;;;;;12.03;10.33;;;;;;;;;;4917792;29;20431;-83
2021/10/26 01:05:18;;;;;;;11.55;9.60;;;;;;;;;;4926488;29;20413;-83
2021/10/26 01:07:44;;;;;;;11.32;9.43;;;;;;;;;;4925666;29;20502;-83
2021/10/26 01:10:11;;;;;;;12.15;9.82;;;;;;;;;;4926284;29;20414;-83
2021/10/26 01:12:38;;;;;;;12.50;10.07;;;;;;;;;;4924758;29;20429;-83
2021/10/26 01:15:06;;;;;;;12.10;9.75;;;;;;;;;;4922230;29;20422;-83
2021/10/26 01:17:33;;;;;;;11.27;9.60;;;;;;;;;;4925720;29;20476;-83
2021/10/26 01:20:03;;;;;;;12.02;9.60;;;;;;;;;;4918974;29;20491;-83
2021/10/26 01:22:34;;;;;;;12.90;9.23;;;;;;;;;;4921476;29;20426;-83
2021/10/26 01:25:01;;;;;;;11.27;8.90;;;;;;;;;;4925357;29;20414;-83
2021/10/26 01:27:28;;;;;;;10.68;9.07;;;;;;;;;;4925703;29;20414;-83
2021/10/26 01:29:54;;;;;;;12.38;9.20;;;;;;;;;;4924903;29;20409;-83
2021/10/26 01:32:22;;;;;;;11.67;9.20;;;;;;;;;;4924978;29;20491;-83
2021/10/26 01:34:49;;;;;;;11.25;8.50;;;;;;;;;;4925123;29;20498;-83
2021/10/26 01:37:17;;;;;;;11.55;8.57;;;;;;;;;;4925820;29;20465;-83
2021/10/26 01:39:45;;;;;;;11.48;8.90;;;;;;;;;;4924764;29;20445;-83
2021/10/26 01:42:11;;;;;;;12.13;8.75;;;;;;;;;;4924732;29;20441;-82
2021/10/26 01:44:40;;;;;;;9.90;8.10;;;;;;;;;;4924260;29;20856;-82
2021/10/26 01:47:06;;;;;;;9.98;8.32;;;;;;;;;;4924917;29;20503;-83
2021/10/26 01:49:34;;;;;;;10.70;8.40;;;;;;;;;;4924877;29;20425;-83
2021/10/26 01:52:01;;;;;;;10.57;8.40;;;;;;;;;;4921745;29;20428;-83
2021/10/26 01:54:36;;;;;;;10.65;8.18;;;;;;;;;;4920069;29;20411;-83
2021/10/26 01:57:04;;;;;;;9.85;7.82;;;;;;;;;;4923935;29;20533;-83
2021/10/26 01:59:32;;;;;;;9.40;7.50;;;;;;;;;;4924183;29;20445;-82
2021/10/26 02:01:59;;;;;;;10.48;7.90;;;;;;;;;;4924121;29;20440;-83
2021/10/26 02:04:25;;;;;;;10.23;8.02;;;;;;;;;;4925374;29;20414;-83
2021/10/26 02:06:52;;;;;;;9.88;8.20;;;;;;;;;;4925110;29;20668;-83
2021/10/26 02:09:20;;;;;;;8.50;7.68;;;;;;;;;;4924938;29;20421;-83
2021/10/26 02:11:48;;;;;;;10.02;7.60;;;;;;;;;;4924115;29;20402;-83
2021/10/26 02:14:15;;;;;;;9.88;7.35;;;;;;;;;;4925405;29;20548;-83
2021/10/26 02:16:42;;;;;;;10.98;7.88;;;;;;;;;;4925087;29;20426;-83
2021/10/26 02:19:09;;;;;;;9.77;7.73;;;;;;;;;;4924832;29;20493;-83
2021/10/26 02:21:36;;;;;;;9.73;7.65;;;;;;;;;;4924770;29;21132;-82
2021/10/26 02:24:03;;;;;;;9.27;7.45;;;;;;;;;;4925370;29;20428;-84
2021/10/26 02:26:30;;;;;;;9.45;7.47;;;;;;;;;;4926348;29;20474;-84
2021/10/26 02:28:58;;;;;;;9.77;7.72;;;;;;;;;;4926542;29;20419;-82
2021/10/26 02:31:25;;;;;;;10.48;7.90;;;;;;;;;;4925829;29;20461;-84
2021/10/26 02:33:52;;;;;;;11.20;7.75;;;;;;;;;;4926178;29;20421;-84
2021/10/26 02:36:19;;;;;;;9.75;7.50;;;;;;;;;;4925635;29;20410;-84
2021/10/26 02:38:46;;;;;;;9.00;7.00;;;;;;;;;;4925778;29;20469;-83
2021/10/26 02:41:13;;;;;;;9.80;7.60;;;;;;;;;;4926184;29;20912;-84
2021/10/26 02:43:40;;;;;;;9.68;7.53;;;;;;;;;;4926259;29;20419;-84
2021/10/26 02:46:08;;;;;;;10.45;7.30;;;;;;;;;;4926087;29;20936;-84
2021/10/26 02:48:35;;;;;;;8.32;6.80;;;;;;;;;;4927018;29;20466;-85
2021/10/26 02:51:02;;;;;;;10.23;7.15;;;;;;;;;;4925780;29;20425;-84
2021/10/26 02:53:29;;;;;;;8.00;6.70;;;;;;;;;;4926648;29;20414;-84
2021/10/26 02:55:56;;;;;;;8.10;7.10;;;;;;;;;;4926643;29;20502;-84
2021/10/26 02:58:23;;;;;;;8.93;7.07;;;;;;;;;;4925941;29;20438;-85
2021/10/26 03:00:50;;;;;;;8.52;7.00;;;;;;;;;;4925772;29;20782;-83
2021/10/26 03:03:18;;;;;;;9.85;7.20;;;;;;;;;;4926973;29;20426;-83
2021/10/26 03:05:45;;;;;;;8.73;7.10;;;;;;;;;;4926994;29;20409;-83
2021/10/26 03:08:12;;;;;;;8.50;7.20;;;;;;;;;;4926113;29;20418;-82
2021/10/26 03:10:40;;;;;;;8.30;7.05;;;;;;;;;;4925872;29;20540;-82
2021/10/26 03:13:07;;;;;;;7.78;6.80;;;;;;;;;;4926255;29;20468;-82
2021/10/26 03:15:33;;;;;;;9.50;7.15;;;;;;;;;;4925509;29;20430;-84
2021/10/26 03:18:01;;;;;;;9.55;7.20;;;;;;;;;;4926807;29;20816;-84
2021/10/26 03:20:29;;;;;;;8.32;7.15;;;;;;;;;;4927202;29;20431;-84
2021/10/26 03:22:56;;;;;;;9.70;7.35;;;;;;;;;;4925959;29;20479;-84
2021/10/26 03:25:23;;;;;;;9.30;7.38;;;;;;;;;;4926679;29;20422;-85
2021/10/26 03:27:50;;;;;;;9.13;6.78;;;;;;;;;;4925836;29;20427;-84
2021/10/26 03:30:18;;;;;;;8.30;7.40;;;;;;;;;;4925918;29;20427;-85
2021/10/26 03:32:44;;;;;;;8.95;7.03;;;;;;;;;;4926436;29;20500;-84
2021/10/26 03:35:11;;;;;;;7.97;7.00;;;;;;;;;;4925836;29;20417;-84
2021/10/26 03:37:41;;;;;;;9.60;7.20;;;;;;;;;;4928944;29;20410;-84
2021/10/26 03:40:09;;;;;;;8.88;7.32;;;;;;;;;;4929839;29;20480;-84
2021/10/26 03:42:36;;;;;;;9.10;7.43;;;;;;;;;;4929175;29;20473;-85
2021/10/26 03:45:03;;;;;;;8.75;7.28;;;;;;;;;;4928329;29;20422;-84
2021/10/26 03:47:30;;;;;;;10.18;7.18;;;;;;;;;;4929275;29;20422;-84
2021/10/26 03:49:57;;;;;;;8.63;7.25;;;;;;;;;;4929245;29;20442;-83
2021/10/26 03:52:23;;;;;;;9.52;7.68;;;;;;;;;;4929325;29;20846;-85
2021/10/26 03:54:55;;;;;;;9.68;7.35;;;;;;;;;;4929691;29;20474;-84
2021/10/26 03:57:22;;;;;;;9.45;7.43;;;;;;;;;;4928816;29;20467;-84
2021/10/26 03:59:49;;;;;;;10.00;8.02;;;;;;;;;;4928473;29;20489;-84
2021/10/26 04:02:20;;;;;;;9.90;7.50;;;;;;;;;;4928109;29;20489;-84
2021/10/26 04:04:47;;;;;;;10.90;8.00;;;;;;;;;;4923578;29;21025;-84
2021/10/26 04:07:14;;;;;;;10.35;7.85;;;;;;;;;;4924262;29;20416;-84
2021/10/26 04:09:47;;;;;;;8.95;7.50;;;;;;;;;;4927825;29;20886;-84
2021/10/26 04:14:59;;;;;;;9.80;7.43;;;;;;;;;;4923733;29;20529;-85
2021/10/26 04:17:27;;;;;;;11.30;7.85;;;;;;;;;;4928151;29;20422;-84
2021/10/26 04:19:57;;;;;;;11.48;8.18;;;;;;;;;;4927859;29;20913;-84
2021/10/26 04:22:25;;;;;;;10.63;8.20;;;;;;;;;;4925089;29;20487;-84
2021/10/26 04:24:52;;;;;;;9.97;7.83;;;;;;;;;;4928279;29;21017;-84
2021/10/26 04:27:21;;;;;;;10.87;8.17;;;;;;;;;;4928399;29;20425;-84
2021/10/26 04:29:48;;;;;;;13.65;8.57;;;;;;;;;;4927140;29;20486;-84
2021/10/26 04:32:17;;;;;;;12.02;7.75;;;;;;;;;;4910961;29;20486;-84
2021/10/26 04:34:44;;;;;;;10.55;8.55;;;;;;;;;;4927458;29;20477;-85
2021/10/26 04:37:11;;;;;;;11.10;8.15;;;;;;;;;;4927939;29;20832;-84
2021/10/26 04:39:38;;;;;;;11.02;8.35;;;;;;;;;;4926265;29;20895;-84
2021/10/26 04:42:08;;;;;;;11.35;8.30;;;;;;;;;;4926795;29;20422;-84
2021/10/26 04:44:38;;;;;;;11.60;8.48;;;;;;;;;;4927207;29;20472;-84
2021/10/26 04:47:05;;;;;;;12.77;8.50;;;;;;;;;;4926684;29;20465;-84
2021/10/26 04:49:32;;;;;;;9.88;7.72;;;;;;;;;;4926401;29;20929;-84
2021/10/26 04:51:59;;;;;;;9.60;7.85;;;;;;;;;;4927027;29;20482;-85
2021/10/26 04:54:25;;;;;;;12.10;8.10;;;;;;;;;;4924208;29;20423;-84
2021/10/26 04:56:52;;;;;;;10.70;8.55;;;;;;;;;;4926073;29;20425;-84
2021/10/26 04:59:20;;;;;;;12.93;8.88;;;;;;;;;;4926123;29;20417;-85
2021/10/26 05:01:48;;;;;;;13.40;8.63;;;;;;;;;;4925502;29;20425;-84
2021/10/26 05:04:15;;;;;;;10.93;8.10;;;;;;;;;;4926195;29;20520;-84
2021/10/26 05:06:42;;;;;;;11.00;8.88;;;;;;;;;;4927619;29;20417;-84
2021/10/26 05:09:09;;;;;;;11.40;8.45;;;;;;;;;;4926963;29;20426;-84
2021/10/26 05:11:36;;;;;;;12.15;8.43;;;;;;;;;;4927497;29;20819;-85
2021/10/26 05:14:03;;;;;;;12.98;8.65;;;;;;;;;;4925252;29;20425;-85
2021/10/26 05:16:29;;;;;;;12.82;8.57;;;;;;;;;;4925486;29;20858;-84
2021/10/26 05:19:00;;;;;;;11.30;9.05;;;;;;;;;;4926171;29;20659;-84
2021/10/26 05:21:27;;;;;;;11.75;9.00;;;;;;;;;;4924080;29;20505;-85
2021/10/26 05:23:54;;;;;;;11.23;8.18;;;;;;;;;;4924072;29;20438;-85
2021/10/26 05:26:22;;;;;;;14.07;8.88;;;;;;;;;;4927032;29;20402;-85
2021/10/26 05:28:50;;;;;;;11.38;8.93;;;;;;;;;;4926803;29;20457;-85
2021/10/26 05:31:18;;;;;;;13.27;8.93;;;;;;;;;;4927193;29;20441;-84
2021/10/26 05:33:45;;;;;;;13.48;9.30;;;;;;;;;;4925961;29;20414;-84
2021/10/26 05:36:14;;;;;;;11.60;9.13;;;;;;;;;;4926934;29;20421;-84
2021/10/26 05:38:41;;;;;;;10.82;9.00;;;;;;;;;;4922191;29;20488;-83
2021/10/26 05:41:10;;;;;;;12.85;9.35;;;;;;;;;;4924033;29;20440;-84
2021/10/26 05:43:37;;;;;;;13.23;9.63;;;;;;;;;;4924053;29;20528;-85
2021/10/26 05:46:04;;;;;;;13.15;9.25;;;;;;;;;;4923096;29;20693;-84
2021/10/26 05:48:32;;;;;;;12.20;9.27;;;;;;;;;;4924583;29;20418;-84
2021/10/26 05:51:00;;;;;;;13.00;9.48;;;;;;;;;;4923748;29;20488;-84
2021/10/26 05:53:29;;;;;;;13.15;9.82;;;;;;;;;;4922359;29;20421;-84
2021/10/26 05:55:56;;;;;;;16.27;10.75;;;;;;;;;;4922811;29;20677;-84
2021/10/26 05:58:22;;;;;;;13.00;9.27;;;;;;;;;;4926078;29;21001;-84
2021/10/26 06:00:49;;;;;;;11.27;8.57;;;;;;;;;;4925332;29;20477;-85
2021/10/26 06:03:16;;;;;;;11.60;8.57;;;;;;;;;;4926362;29;20426;-84
2021/10/26 06:05:43;;;;;;;14.88;8.52;;;;;;;;;;4926808;29;20419;-84
2021/10/26 06:08:10;;;;;;;15.47;9.07;;;;;;;;;;4926783;29;20774;-85
2021/10/26 06:10:42;;;;;;;12.20;8.95;;;;;;;;;;4926925;29;20426;-84
2021/10/26 06:13:12;;;;;;;11.65;8.57;;;;;;;;;;4926291;29;20690;-84
2021/10/26 06:15:39;;;;;;;12.73;8.97;;;;;;;;;;4923805;29;21100;-84
2021/10/26 06:18:06;;;;;;;13.27;9.13;;;;;;;;;;4927012;29;20417;-84
2021/10/26 06:20:33;;;;;;;15.52;9.60;;;;;;;;;;4926862;29;20415;-84
2021/10/26 06:23:00;;;;;;;11.73;8.70;;;;;;;;;;4923383;29;20437;-84
2021/10/26 06:25:27;;;;;;;13.98;8.88;;;;;;;;;;4926327;29;20420;-85
2021/10/26 06:27:56;;;;;;;11.60;8.70;;;;;;;;;;4926562;29;20409;-84
2021/10/26 06:30:23;;;;;;;12.50;8.73;;;;;;;;;;4925999;29;20923;-85
2021/10/26 06:32:50;;;;;;;13.30;9.25;;;;;;;;;;4926405;29;20773;-85
2021/10/26 06:35:17;;;;;;;13.48;9.40;;;;;;;;;;4926272;29;20425;-84
2021/10/26 06:37:44;;;;;;;12.77;9.25;;;;;;;;;;4926433;29;20425;-84
2021/10/26 06:40:12;;;;;;;15.10;8.82;;;;;;;;;;4926580;29;20803;-84
2021/10/26 06:42:40;;;;;;;13.82;8.85;;;;;;;;;;4926371;29;20497;-84
2021/10/26 06:45:09;;;;;;;11.85;8.80;;;;;;;;;;4923530;29;20466;-85
2021/10/26 06:47:36;;;;;;;14.05;9.60;;;;;;;;;;4926292;29;20413;-84
2021/10/26 06:50:03;;;;;;;12.32;9.27;;;;;;;;;;4925994;29;20426;-84
2021/10/26 06:52:31;;;;;;;16.08;10.07;;;;;;;;;;4922140;29;20459;-84
2021/10/26 06:55:00;;;;;;;15.73;9.80;;;;;;;;;;4925678;29;20854;-84
2021/10/26 06:57:28;;;;;;;14.02;10.07;;;;;;;;;;4926160;29;20461;-84
2021/10/26 06:59:54;;;;;;;16.25;10.25;;;;;;;;;;4921403;29;20421;-84
2021/10/26 07:02:23;;;;;;;15.65;10.55;;;;;;;;;;4926168;29;20460;-84
2021/10/26 07:04:50;;;;;;;15.68;10.23;;;;;;;;;;4925269;29;20442;-84
2021/10/26 07:07:17;;;;;;;16.90;9.97;;;;;;;;;;4925673;29;20941;-84
2021/10/26 07:09:44;;;;;;;19.20;10.73;;;;;;;;;;4923658;29;20425;-84
2021/10/26 07:12:10;;;;;;;17.40;10.95;;;;;;;;;;4928992;29;20851;-84
2021/10/26 07:14:37;;;;;;;15.35;10.63;;;;;;;;;;4929322;29;20420;-84
2021/10/26 07:17:04;;;;;;;15.88;9.85;;;;;;;;;;4930193;29;20418;-84
2021/10/26 07:19:32;;;;;;;13.93;10.25;;;;;;;;;;4929865;29;20431;-85
2021/10/26 07:21:59;;;;;;;15.93;10.00;;;;;;;;;;4929785;29;20418;-84
2021/10/26 07:24:26;;;;;;;16.45;10.73;;;;;;;;;;4924983;29;20505;-84
2021/10/26 07:26:54;;;;;;;13.05;9.43;;;;;;;;;;4928433;29;20417;-85
2021/10/26 07:29:20;;;;;;;11.53;8.93;;;;;;;;;;4928803;29;20483;-84
2021/10/26 07:31:47;;;;;;;12.50;9.25;;;;;;;;;;4928183;29;20783;-85
2021/10/26 07:34:14;;;;;;;14.38;9.07;;;;;;;;;;4928713;29;20418;-84
2021/10/26 07:36:44;;;;;;;11.55;9.32;;;;;;;;;;4928844;29;20782;-84
2021/10/26 07:39:31;;;;;;;12.45;9.50;;;;;;;;;;4928572;29;20755;-85
2021/10/26 07:41:59;;;;;;;14.23;9.82;;;;;;;;;;4928966;29;20834;-85
2021/10/26 07:44:27;;;;;;;11.13;9.05;;;;;;;;;;4924187;29;20870;-85
2021/10/26 07:46:54;;;;;;;11.93;9.23;;;;;;;;;;4928309;29;20423;-84
2021/10/26 07:49:21;;;;;;;15.10;9.63;;;;;;;;;;4928169;29;20960;-85
2021/10/26 07:51:49;;;;;;;13.23;9.30;;;;;;;;;;4928126;29;20402;-85
2021/10/26 07:54:15;;;;;;;13.47;9.97;;;;;;;;;;4924395;29;20413;-85
2021/10/26 07:56:42;;;;;;;13.85;9.90;;;;;;;;;;4928248;29;20827;-85
2021/10/26 07:59:09;;;;;;;14.90;10.00;;;;;;;;;;4928279;29;20419;-85
2021/10/26 08:01:36;;;;;;;13.68;10.38;;;;;;;;;;4927568;29;20423;-84
2021/10/26 08:04:03;;;;;;;15.07;10.07;;;;;;;;;;4928309;29;20445;-85
2021/10/26 08:06:30;;;;;;;15.82;10.45;;;;;;;;;;4928606;29;20438;-84
2021/10/26 08:08:58;;;;;;;15.63;10.20;;;;;;;;;;4924372;29;20433;-85
2021/10/26 08:11:25;;;;;;;14.55;10.00;;;;;;;;;;4928424;29;20445;-85
2021/10/26 08:13:52;;;;;;;12.75;9.95;;;;;;;;;;4928002;29;20423;-84
2021/10/26 08:16:20;;;;;;;14.85;10.32;;;;;;;;;;4928044;29;20430;-85
2021/10/26 08:18:47;;;;;;;14.03;10.10;;;;;;;;;;4928198;29;21005;-84
2021/10/26 08:21:15;;;;;;;17.02;10.52;;;;;;;;;;4927099;29;20883;-85
2021/10/26 08:23:42;;;;;;;17.42;11.10;;;;;;;;;;4928017;29;20542;-84
2021/10/26 08:26:15;;;;;;;17.65;10.85;;;;;;;;;;4928239;29;20429;-83
2021/10/26 08:28:42;;;;;;;14.95;10.07;;;;;;;;;;4927984;29;20488;-84
2021/10/26 08:31:17;;;;;;;14.68;9.77;;;;;;;;;;4927682;29;20418;-85
2021/10/26 08:34:03;;;;;;;20.88;12.98;;;;;;;;;;4928242;29;20459;-84
2021/10/26 08:36:30;;;;;;;30.50;18.48;;;;;;;;;;4927535;29;20482;-84
2021/10/26 08:38:57;;;;;;;32.25;20.75;;;;;;;;;;4924478;29;20762;-85
2021/10/26 08:41:26;;;;;;;21.07;13.73;;;;;;;;;;4927895;29;20429;-84
2021/10/26 08:43:53;;;;;;;26.73;17.65;;;;;;;;;;4927739;29;20516;-85
2021/10/26 08:46:21;;;;;;;59.33;47.67;;;;;;;;;;4927489;29;20925;-84
2021/10/26 08:48:50;;;;;;;23.33;14.40;;;;;;;;;;4927710;29;20417;-84
2021/10/26 08:51:18;;;;;;;41.67;31.65;;;;;;;;;;4928023;29;20418;-84
2021/10/26 08:53:45;;;;;;;16.92;14.52;;;;;;;;;;4923926;29;20458;-84
2021/10/26 08:56:12;;;;;;;20.73;14.60;;;;;;;;;;4928670;29;20428;-84
2021/10/26 08:58:40;;;;;;;20.13;15.70;;;;;;;;;;4927701;29;20477;-84
2021/10/26 09:01:07;;;;;;;10.43;8.77;;;;;;;;;;4927974;29;20477;-84
2021/10/26 09:03:37;;;;;;;14.43;12.75;;;;;;;;;;4928265;29;20421;-84
2021/10/26 09:06:05;;;;;;;103.22;69.97;;;;;;;;;;4927669;29;20910;-84
2021/10/26 09:08:32;;;;;;;15.73;12.05;;;;;;;;;;4927774;29;20907;-84
2021/10/26 09:11:04;;;;;;;6.60;4.50;;;;;;;;;;4926681;29;20729;-84
2021/10/26 09:16:46;;;;;;;6.95;5.18;;;;;;;;;;4925809;29;20429;-84
2021/10/26 09:19:15;;;;;;;7.40;5.00;;;;;;;;;;4925897;29;20496;-84
2021/10/26 09:21:43;;;;;;;8.77;4.50;;;;;;;;;;4927447;29;20414;-84
2021/10/26 09:24:11;;;;;;;6.13;4.53;;;;;;;;;;4927280;29;20894;-84
2021/10/26 09:26:50;;;;;;;14.45;5.43;;;;;;;;;;4927673;29;20414;-84
2021/10/26 09:29:19;;;;;;;5.60;4.50;;;;;;;;;;4927417;29;20425;-85
2021/10/26 09:31:48;;;;;;;9.68;4.30;;;;;;;;;;4926828;29;20417;-84
2021/10/26 09:34:18;;;;;;;4.80;3.65;;;;;;;;;;4926781;29;20409;-85
2021/10/26 09:36:47;;;;;;;5.45;4.22;;;;;;;;;;4927082;29;20414;-85
2021/10/26 09:39:20;;;;;;;5.88;4.10;;;;;;;;;;4927331;29;20422;-85
2021/10/26 09:42:07;;;;;;;5.60;3.65;;;;;;;;;;4925559;29;20507;-85
2021/10/26 09:44:41;;;;;;;4.07;3.40;;;;;;;;;;4927197;29;20727;-84
2021/10/26 09:47:13;;;;;;;8.35;5.05;;;;;;;;;;4926857;29;20420;-84
2021/10/26 09:49:41;;;;;;;7.28;4.82;;;;;;;;;;4926691;29;20488;-84
2021/10/26 09:52:19;;;;;;;7.55;5.40;;;;;;;;;;4926440;29;20421;-84
2021/10/26 09:54:50;;;;;;;7.00;5.25;;;;;;;;;;4925802;29;20460;-84
2021/10/26 09:57:20;;;;;;;6.28;4.78;;;;;;;;;;4927172;29;20414;-85
2021/10/26 09:59:48;;;;;;;7.32;4.93;;;;;;;;;;4926520;29;20522;-84
2021/10/26 10:02:24;;;;;;;7.55;4.90;;;;;;;;;;4926418;29;20418;-85
2021/10/26 10:04:52;;;;;;;6.83;4.70;;;;;;;;;;4926321;29;20475;-84
2021/10/26 10:07:33;;;;;;;7.82;5.00;;;;;;;;;;4926331;29;20413;-84
2021/10/26 10:10:04;;;;;;;7.20;5.15;;;;;;;;;;4927007;29;21148;-84
2021/10/26 10:12:30;;;;;;;6.93;5.13;;;;;;;;;;4926060;29;20421;-84
2021/10/26 10:14:58;;;;;;;5.78;5.18;;;;;;;;;;4924717;29;20414;-84
2021/10/26 10:17:27;;;;;;;6.32;4.72;;;;;;;;;;4922868;29;20414;-85
2021/10/26 10:19:55;;;;;;;6.32;5.30;;;;;;;;;;4924626;29;20422;-84
2021/10/26 10:22:27;;;;;;;6.90;5.20;;;;;;;;;;4925192;29;20453;-84
2021/10/26 10:24:56;;;;;;;6.57;5.43;;;;;;;;;;4925312;29;20438;-84
2021/10/26 10:27:25;;;;;;;7.38;5.20;;;;;;;;;;4925472;29;20414;-83
2021/10/26 10:29:53;;;;;;;5.90;5.18;;;;;;;;;;4926072;29;20420;-83
2021/10/26 10:32:23;;;;;;;7.57;5.30;;;;;;;;;;4926099;29;20477;-83
2021/10/26 10:34:52;;;;;;;6.88;5.35;;;;;;;;;;4926121;29;20414;-83
2021/10/26 10:37:22;;;;;;;8.25;5.63;;;;;;;;;;4925100;29;20418;-83
2021/10/26 10:39:50;;;;;;;7.53;5.70;;;;;;;;;;4924961;29;20416;-83
2021/10/26 10:42:23;;;;;;;7.93;5.90;;;;;;;;;;4926102;29;20914;-84
2021/10/26 10:44:52;;;;;;;8.93;6.07;;;;;;;;;;4921464;29;20441;-83
2021/10/26 10:47:37;;;;;;;8.05;5.97;;;;;;;;;;4934322;29;20501;-83
2021/10/26 10:50:24;;;;;;;10.85;6.03;;;;;;;;;;4930001;29;20944;-83
2021/10/26 10:53:05;;;;;;;8.65;6.22;;;;;;;;;;4925343;29;20419;-83
2021/10/26 10:55:33;;;;;;;7.47;6.15;;;;;;;;;;4930651;29;20406;-83
2021/10/26 10:58:27;;;;;;;9.48;6.25;;;;;;;;;;4930223;29;20428;-83
2021/10/26 11:01:16;;;;;;;10.23;6.45;;;;;;;;;;4928995;29;20409;-83
2021/10/26 11:03:43;;;;;;;11.30;6.43;;;;;;;;;;4929771;29;20505;-84
2021/10/26 11:06:31;;;;;;;7.05;6.10;;;;;;;;;;4930642;29;20414;-83
2021/10/26 11:08:58;;;;;;;8.33;6.90;;;;;;;;;;4928951;29;20490;-84
2021/10/26 11:11:25;;;;;;;9.07;6.35;;;;;;;;;;4929508;29;20430;-84
2021/10/26 11:14:17;;;;;;;8.90;6.45;;;;;;;;;;4929010;29;20418;-84
2021/10/26 11:16:44;;;;;;;7.82;6.45;;;;;;;;;;4926873;29;20413;-83
2021/10/26 11:19:44;;;;;;;7.78;6.28;;;;;;;;;;4930024;29;20402;-83
2021/10/26 11:22:50;;;;;;;11.00;6.28;;;;;;;;;;4927793;29;21229;-83
2021/10/26 11:25:22;;;;;;;8.68;6.32;;;;;;;;;;4928244;29;20422;-84
2021/10/26 11:27:49;;;;;;;9.80;6.45;;;;;;;;;;4929715;29;20421;-84
2021/10/26 11:30:56;;;;;;;8.27;6.72;;;;;;;;;;4927825;29;20425;-83
2021/10/26 11:33:34;;;;;;;7.73;6.43;;;;;;;;;;4922379;29;20458;-84
2021/10/26 11:36:05;;;;;;;7.65;6.43;;;;;;;;;;4925629;29;20432;-84
2021/10/26 11:38:37;;;;;;;7.75;6.70;;;;;;;;;;4924822;29;20461;-84
2021/10/26 11:41:06;;;;;;;6.80;5.78;;;;;;;;;;4927527;29;20425;-83
2021/10/26 11:43:40;;;;;;;8.05;5.90;;;;;;;;;;4925581;29;20425;-82
2021/10/26 11:46:07;;;;;;;12.10;6.30;;;;;;;;;;4925117;29;20433;-83
2021/10/26 11:48:43;;;;;;;8.20;6.03;;;;;;;;;;4926902;29;20669;-84
2021/10/26 11:51:34;;;;;;;7.97;6.07;;;;;;;;;;4927624;29;20476;-84
2021/10/26 11:54:05;;;;;;;7.22;5.95;;;;;;;;;;4924596;29;20712;-83
2021/10/26 11:56:35;;;;;;;8.57;6.18;;;;;;;;;;4921276;29;20418;-83
2021/10/26 11:59:04;;;;;;;7.82;6.50;;;;;;;;;;4926457;29;20789;-83
2021/10/26 12:01:49;;;;;;;9.27;6.40;;;;;;;;;;4927873;29;20441;-84
2021/10/26 12:04:22;;;;;;;8.07;6.00;;;;;;;;;;4926978;29;20426;-83
2021/10/26 12:06:50;;;;;;;7.82;6.05;;;;;;;;;;4926709;29;20414;-84
2021/10/26 12:09:19;;;;;;;8.87;6.40;;;;;;;;;;4926604;29;20508;-84
2021/10/26 12:11:48;;;;;;;10.98;6.40;;;;;;;;;;4928032;29;20410;-84
2021/10/26 12:14:27;;;;;;;9.35;5.90;;;;;;;;;;4928201;29;20812;-84
2021/10/26 12:17:09;;;;;;;8.52;6.15;;;;;;;;;;4926528;29;20465;-84
2021/10/26 12:19:37;;;;;;;7.53;5.72;;;;;;;;;;4926167;29;20409;-84
2021/10/26 12:22:04;;;;;;;8.52;5.65;;;;;;;;;;4927609;29;20461;-84
2021/10/26 12:24:34;;;;;;;8.40;5.87;;;;;;;;;;4926883;29;20426;-84
2021/10/26 12:27:04;;;;;;;6.75;5.70;;;;;;;;;;4928661;29;20973;-84
2021/10/26 12:29:32;;;;;;;7.57;5.90;;;;;;;;;;4928490;29;20410;-84
2021/10/26 12:31:59;;;;;;;9.02;5.72;;;;;;;;;;4926546;29;20879;-84
2021/10/26 12:34:27;;;;;;;7.30;6.32;;;;;;;;;;4926724;29;20409;-84
2021/10/26 12:36:53;;;;;;;7.57;6.20;;;;;;;;;;4928360;29;20414;-84
2021/10/26 12:39:24;;;;;;;8.85;6.32;;;;;;;;;;4927776;29;20425;-84
2021/10/26 12:41:53;;;;;;;7.47;6.23;;;;;;;;;;4926985;29;20436;-84
2021/10/26 12:44:23;;;;;;;8.02;6.07;;;;;;;;;;4927904;29;20413;-84
2021/10/26 12:47:03;;;;;;;7.28;5.90;;;;;;;;;;4926034;29;20432;-84
2021/10/26 12:49:36;;;;;;;8.13;6.10;;;;;;;;;;4927548;29;20452;-84
2021/10/26 12:52:12;;;;;;;7.03;5.72;;;;;;;;;;4926617;29;20449;-84
2021/10/26 12:54:39;;;;;;;7.95;6.20;;;;;;;;;;4927141;29;20418;-85
2021/10/26 12:57:07;;;;;;;8.32;6.43;;;;;;;;;;4927782;29;20421;-84
2021/10/26 12:59:38;;;;;;;8.15;6.57;;;;;;;;;;4925318;29;20437;-84
2021/10/26 13:02:07;;;;;;;8.15;6.20;;;;;;;;;;4918842;23;20483;-80
2021/10/26 13:04:39;;;;;;;7.43;6.10;;;;;;;;;;4896989;29;20449;-80
2021/10/26 13:07:07;;;;;;;9.45;6.32;;;;;;;;;;4886601;29;20496;-80
2021/10/26 13:09:36;;;;;;;6.78;5.80;;;;;;;;;;4886567;29;20782;-80
2021/10/26 13:12:20;;;;;;;6.60;5.90;;;;;;;;;;4886785;29;20433;-79
2021/10/26 13:14:49;;;;;;;9.65;6.88;;;;;;;;;;4892274;29;20507;-79
2021/10/26 13:17:28;;;;;;;7.93;6.15;;;;;;;;;;4888574;29;20409;-79
2021/10/26 13:20:16;;;;;;;7.55;6.15;;;;;;;;;;4889414;29;20427;-79
2021/10/26 13:22:55;;;;;;;8.10;6.25;;;;;;;;;;4892053;29;20421;-81
2021/10/26 13:25:24;;;;;;;8.30;6.40;;;;;;;;;;4891657;29;20930;-79
2021/10/26 13:27:53;;;;;;;8.02;6.05;;;;;;;;;;4891918;29;20421;-80
2021/10/26 13:30:20;;;;;;;7.55;6.20;;;;;;;;;;4890291;29;20413;-81
2021/10/26 13:32:47;;;;;;;8.03;5.60;;;;;;;;;;4890989;29;20420;-80
2021/10/26 13:35:14;;;;;;;9.50;6.00;;;;;;;;;;4891979;29;20544;-81
2021/10/26 13:37:41;;;;;;;7.78;5.88;;;;;;;;;;4890459;29;20477;-81
2021/10/26 13:40:09;;;;;;;7.90;5.82;;;;;;;;;;4889689;29;20417;-81
2021/10/26 13:42:36;;;;;;;8.60;5.30;;;;;;;;;;4885991;29;20490;-81
2021/10/26 13:45:06;;;;;;;7.65;5.75;;;;;;;;;;4888747;29;20452;-81
2021/10/26 13:47:35;;;;;;;8.00;5.60;;;;;;;;;;4888385;29;20492;-80
2021/10/26 13:50:04;;;;;;;7.50;5.43;;;;;;;;;;4887685;29;20480;-80
2021/10/26 13:52:30;;;;;;;7.68;5.82;;;;;;;;;;4891537;29;20485;-80
2021/10/26 13:54:58;;;;;;;8.13;6.20;;;;;;;;;;4892665;29;20471;-81
2021/10/26 13:57:25;;;;;;;9.25;5.68;;;;;;;;;;4888982;29;20432;-81
2021/10/26 13:59:52;;;;;;;6.18;5.35;;;;;;;;;;4889137;29;20417;-80
2021/10/26 14:02:20;;;;;;;6.82;5.80;;;;;;;;;;4923713;29;20425;-80
2021/10/26 14:04:47;;;;;;;8.55;6.18;;;;;;;;;;4926594;29;20413;-80
2021/10/26 14:07:14;;;;;;;8.77;6.05;;;;;;;;;;4927494;29;20670;-80
2021/10/26 14:09:41;;;;;;;9.30;5.95;;;;;;;;;;4930244;29;21138;-81
2021/10/26 14:12:08;;;;;;;9.15;5.88;;;;;;;;;;4927131;29;20418;-80
2021/10/26 14:14:35;;;;;;;8.45;5.85;;;;;;;;;;4923316;29;20429;-80
2021/10/26 14:17:02;;;;;;;9.73;5.85;;;;;;;;;;4925443;29;21137;-80
2021/10/26 14:19:30;;;;;;;6.93;6.15;;;;;;;;;;4937110;28;20408;-80
2021/10/26 14:21:57;;;;;;;10.30;5.90;;;;;;;;;;4934966;29;20404;-81
2021/10/26 14:24:27;;;;;;;8.18;5.90;;;;;;;;;;4931914;29;20427;-80
2021/10/26 14:26:54;;;;;;;7.80;5.90;;;;;;;;;;4934867;29;21006;-79
2021/10/26 14:29:21;;;;;;;7.03;5.53;;;;;;;;;;4933142;29;20472;-81
2021/10/26 14:31:48;;;;;;;6.78;5.75;;;;;;;;;;4938728;29;20412;-79
2021/10/26 14:34:19;;;;;;;8.32;5.65;;;;;;;;;;4930625;29;20792;-82
2021/10/26 14:36:57;;;;;;;8.18;5.95;;;;;;;;;;4928148;29;20970;-81
2021/10/26 14:39:39;;;;;;;10.60;6.05;;;;;;;;;;4932903;29;21153;-80
2021/10/26 14:53:25;;;;;;;11.43;6.95;;;;;;;;;;4936587;29;20437;-80
2021/10/26 14:56:05;;;;;;;7.78;6.22;;;;;;;;;;4933285;29;21686;-80
2021/10/26 14:58:34;;;;;;;9.77;6.30;;;;;;;;;;4935527;29;20414;-82
2021/10/26 15:01:02;;;;;;;10.52;6.75;;;;;;;;;;4933076;28;21284;-80
2021/10/26 15:03:29;;;;;;;11.05;7.03;;;;;;;;;;4936554;29;20413;-80